Time;durP1;ratioP1;P1;durP2;ratioP2;P2;SDS_P1;SDS_P2;PMS_P1;PMS_P2;Temp;Humidity;BMP_temperature;BMP_pressure;BME280_temperature;BME280_humidity;BME280_pressure;Samples;Min_cycle;Max_cycle;Signal;HPM_P1;HPM_P2
2023/12/27 11:16:23;;;;;;;5.40;1.90;;;;;;;6.72;62.19;100815.11;110267;263;152584;-74
2023/12/27 11:18:58;;;;;;;6.40;1.90;;;;;;;6.61;62.31;100822.04;111189;259;175053;-74
2023/12/27 11:21:32;;;;;;;6.50;1.80;;;;;;;6.48;62.06;100822.04;111738;252;152579;-75
2023/12/27 11:24:07;;;;;;;6.80;2.10;;;;;;;6.35;62.19;100830.70;111774;254;110399;-75
2023/12/27 11:26:42;;;;;;;4.70;1.70;;;;;;;6.26;62.54;100835.16;112050;253;38234;-75
2023/12/27 11:29:17;;;;;;;6.70;1.90;;;;;;;6.17;62.68;100832.16;111925;253;38541;-75
2023/12/27 11:31:51;;;;;;;6.10;2.60;;;;;;;6.10;62.88;100827.91;112278;252;39710;-75
2023/12/27 11:34:25;;;;;;;7.80;2.70;;;;;;;6.05;62.96;100831.62;112188;247;152638;-75
2023/12/27 11:37:00;;;;;;;6.70;1.90;;;;;;;6.01;63.04;100827.33;112383;250;38271;-75
2023/12/27 11:39:35;;;;;;;9.30;2.30;;;;;;;5.95;62.84;100829.30;112172;247;153380;-75
2023/12/27 11:42:09;;;;;;;7.60;2.30;;;;;;;5.91;63.05;100835.58;112328;249;38713;-75
2023/12/27 11:44:43;;;;;;;6.60;2.40;;;;;;;5.88;62.92;100838.00;112365;249;38617;-74
2023/12/27 11:47:19;;;;;;;7.70;2.20;;;;;;;5.85;62.61;100841.17;112167;250;40054;-74
2023/12/27 11:50:22;;;;;;;5.80;2.70;;;;;;;5.81;62.77;100846.92;112282;250;38216;-75
2023/12/27 11:52:57;;;;;;;7.40;2.20;;;;;;;5.78;63.07;100850.58;112135;248;153377;-75
2023/12/27 11:55:33;;;;;;;6.30;2.30;;;;;;;5.79;63.17;100843.64;112237;250;172348;-75
2023/12/27 11:58:08;;;;;;;7.60;2.10;;;;;;;5.80;63.11;100845.19;112185;248;154014;-75
2023/12/27 12:00:42;;;;;;;8.40;3.20;;;;;;;5.81;62.83;100845.54;112326;250;38492;-75
2023/12/27 12:03:20;;;;;;;7.50;2.20;;;;;;;5.80;62.98;100845.89;112031;251;152869;-75
2023/12/27 12:06:08;;;;;;;5.80;2.60;;;;;;;5.80;63.14;100845.02;112162;250;38565;-75
2023/12/27 12:08:45;;;;;;;7.50;2.20;;;;;;;5.81;62.79;100846.58;112205;250;39487;-75
2023/12/27 12:11:19;;;;;;;8.20;3.30;;;;;;;5.79;62.53;100857.15;112300;250;39469;-74
2023/12/27 12:13:53;;;;;;;10.30;3.40;;;;;;;5.77;62.46;100853.88;112178;250;174964;-75
2023/12/27 12:16:31;;;;;;;12.90;5.20;;;;;;;5.75;62.47;100866.38;112126;247;154066;-76
2023/12/27 12:19:08;;;;;;;8.90;4.40;;;;;;;5.75;62.84;100866.72;112302;249;39180;-76
2023/12/27 12:21:42;;;;;;;13.00;4.20;;;;;;;5.75;62.29;100864.98;112136;248;152955;-74
2023/12/27 12:24:15;;;;;;;12.80;3.40;;;;;;;5.74;62.37;100868.29;112240;249;38491;-74
2023/12/27 12:26:50;;;;;;;8.40;2.70;;;;;;;5.73;62.29;100866.92;112315;246;152955;-75
2023/12/27 12:29:25;;;;;;;10.20;3.10;;;;;;;5.72;62.29;100869.01;112379;249;39360;-75
2023/12/27 12:31:59;;;;;;;8.20;2.60;;;;;;;5.71;62.31;100875.24;112413;249;38323;-75
2023/12/27 12:34:34;;;;;;;7.40;2.50;;;;;;;5.71;62.34;100880.27;112260;246;152789;-75
2023/12/27 12:37:08;;;;;;;8.40;2.50;;;;;;;5.69;62.12;100882.20;112290;249;39470;-74
2023/12/27 12:39:43;;;;;;;7.40;3.40;;;;;;;5.66;61.85;100888.27;112188;246;152834;-74
2023/12/27 12:42:17;;;;;;;7.90;2.40;;;;;;;5.61;62.04;100889.52;112390;249;39329;-75
2023/12/27 12:44:52;;;;;;;13.40;4.40;;;;;;;5.60;61.98;100891.09;112168;245;153242;-74
2023/12/27 12:47:26;;;;;;;10.00;3.30;;;;;;;5.59;61.97;100891.80;112419;248;38796;-74
2023/12/27 12:50:01;;;;;;;7.90;2.70;;;;;;;5.60;62.16;100893.69;112391;248;38272;-75
2023/12/27 12:52:38;;;;;;;8.70;2.50;;;;;;;5.61;62.27;100894.55;112237;246;152836;-75
2023/12/27 12:55:12;;;;;;;6.50;2.60;;;;;;;5.62;62.32;100894.20;112268;248;39127;-75
2023/12/27 12:57:46;;;;;;;9.00;2.80;;;;;;;5.62;62.52;100889.00;112270;246;154116;-75
2023/12/27 13:00:26;;;;;;;7.40;2.40;;;;;;;5.64;62.70;100887.94;112375;249;38233;-74
2023/12/27 13:03:01;;;;;;;5.90;2.30;;;;;;;5.64;62.72;100886.02;112285;246;153906;-74
2023/12/27 13:05:35;;;;;;;7.70;2.90;;;;;;;5.65;62.82;100887.41;112369;249;39985;-75
2023/12/27 13:08:14;;;;;;;10.20;3.20;;;;;;;5.64;62.91;100888.29;112383;249;38643;-75
2023/12/27 13:10:48;;;;;;;8.70;2.70;;;;;;;5.62;62.77;100885.70;112275;246;154054;-75
2023/12/27 13:13:23;;;;;;;7.00;2.40;;;;;;;5.61;62.81;100887.10;112402;249;39762;-75
2023/12/27 13:15:57;;;;;;;8.10;3.00;;;;;;;5.60;62.87;100885.04;112284;246;154289;-75
2023/12/27 13:18:31;;;;;;;9.10;2.70;;;;;;;5.58;62.47;100890.77;112264;249;174952;-75
2023/12/27 13:21:07;;;;;;;5.70;2.40;;;;;;;5.53;62.52;100885.80;112271;246;153110;-74
2023/12/27 13:23:41;;;;;;;8.40;2.30;;;;;;;5.49;62.69;100884.45;112416;249;38318;-74
2023/12/27 13:26:19;;;;;;;9.50;2.50;;;;;;;5.45;62.71;100888.64;112289;249;38381;-75
2023/12/27 13:28:53;;;;;;;6.50;2.40;;;;;;;5.41;62.81;100890.22;112268;246;152671;-76
2023/12/27 13:31:27;;;;;;;9.70;2.60;;;;;;;5.37;62.86;100893.55;112401;248;39739;-74
2023/12/27 13:34:03;;;;;;;5.90;2.20;;;;;;;5.34;63.14;100895.13;112278;246;152820;-74
2023/12/27 13:36:37;;;;;;;8.60;2.50;;;;;;;5.31;63.11;100897.58;112260;249;38603;-74
2023/12/27 13:39:11;;;;;;;6.50;2.70;;;;;;;5.29;63.44;100897.24;112272;246;154124;-73
2023/12/27 13:41:45;;;;;;;6.60;2.20;;;;;;;5.26;63.45;100901.95;112380;249;38477;-73
2023/12/27 13:44:19;;;;;;;6.40;2.70;;;;;;;5.23;63.31;100906.81;112424;249;38255;-73
2023/12/27 13:46:53;;;;;;;7.30;2.10;;;;;;;5.18;63.57;100912.38;112286;246;152951;-74
2023/12/27 13:49:29;;;;;;;8.40;2.70;;;;;;;5.13;63.77;100917.25;111714;249;909317;-74
2023/12/27 13:52:04;;;;;;;8.20;2.60;;;;;;;5.11;63.89;100923.33;112260;246;153537;-74
2023/12/27 13:54:38;;;;;;;7.40;2.80;;;;;;;5.07;63.83;100924.90;112404;248;38007;-74
2023/12/27 13:57:12;;;;;;;7.40;2.70;;;;;;;5.04;63.76;100925.61;112319;249;152993;-74
2023/12/27 13:59:47;;;;;;;7.50;2.90;;;;;;;4.99;63.70;100931.87;112243;249;38446;-75
2023/12/27 14:02:20;;;;;;;6.40;2.60;;;;;;;4.95;64.10;100932.59;112412;248;38361;-75
2023/12/27 14:04:54;;;;;;;8.30;3.10;;;;;;;4.93;64.27;100938.48;112256;246;153154;-74
2023/12/27 14:07:35;;;;;;;8.60;2.30;;;;;;;4.89;64.24;100943.17;112387;249;39100;-74
2023/12/27 14:10:14;;;;;;;7.50;2.30;;;;;;;4.83;64.38;100946.49;112286;246;153076;-75
2023/12/27 14:12:47;;;;;;;7.20;2.60;;;;;;;4.78;64.61;100944.43;112407;248;39743;-75
